createdAt,value
2023-02-06T00:05:23.176Z,102877
2023-02-06T00:11:14.002Z,102880
2023-02-06T00:17:06.682Z,102875
2023-02-06T00:23:03.553Z,102873
2023-02-06T00:28:54.350Z,102877
2023-02-06T00:34:44.925Z,102875
2023-02-06T00:40:38.554Z,102885
2023-02-06T00:46:30.580Z,102887
2023-02-06T00:52:22.545Z,102885
2023-02-06T00:58:14.145Z,102881
2023-02-06T01:04:05.114Z,102884
2023-02-06T01:10:01.148Z,102880
2023-02-06T01:15:54.307Z,102889
2023-02-06T01:21:45.704Z,102890
2023-02-06T01:27:34.879Z,102884
2023-02-06T01:33:35.869Z,102877
2023-02-06T01:39:26.168Z,102880
2023-02-06T01:45:19.302Z,102875
2023-02-06T01:51:12.296Z,102877
2023-02-06T01:57:03.266Z,102879
2023-02-06T02:02:53.048Z,102883
2023-02-06T02:08:44.582Z,102888
2023-02-06T02:14:37.906Z,102898
2023-02-06T02:20:32.185Z,102890
2023-02-06T02:26:25.061Z,102892
2023-02-06T02:32:21.078Z,102891
2023-02-06T02:38:16.416Z,102878
2023-02-06T02:44:08.817Z,102868
2023-02-06T02:50:00.524Z,102855
2023-02-06T02:55:52.464Z,102861
2023-02-06T03:01:44.339Z,102858
2023-02-06T03:07:39.686Z,102867
2023-02-06T03:13:31.339Z,102869
2023-02-06T03:19:21.164Z,102865
2023-02-06T03:25:13.186Z,102869
2023-02-06T03:31:02.987Z,102876
2023-02-06T03:36:53.882Z,102886
2023-02-06T03:42:45.100Z,102889
2023-02-06T03:48:36.122Z,102899
2023-02-06T03:54:27.830Z,102902
2023-02-06T04:00:18.562Z,102910
2023-02-06T04:06:08.601Z,102918
2023-02-06T04:11:57.548Z,102915
2023-02-06T04:18:04.529Z,102916
2023-02-06T04:23:57.785Z,102930
2023-02-06T04:29:52.230Z,102927
2023-02-06T04:35:43.877Z,102929
2023-02-06T04:41:34.982Z,102928
2023-02-06T04:47:23.430Z,102921
2023-02-06T04:53:14.757Z,102931
2023-02-06T04:59:04.779Z,102921
2023-02-06T05:04:54.419Z,102936
2023-02-06T05:10:49.748Z,102932
2023-02-06T05:16:39.053Z,102938
2023-02-06T05:22:36.650Z,102924
2023-02-06T05:28:26.494Z,102930
2023-02-06T05:34:16.344Z,102935
2023-02-06T05:40:06.576Z,102931
2023-02-06T05:45:57.062Z,102923
2023-02-06T05:51:45.971Z,102917
2023-02-06T05:57:35.250Z,102914
2023-02-06T06:03:27.863Z,102905
2023-02-06T06:09:22.390Z,102902
2023-02-06T06:15:10.885Z,102913
2023-02-06T06:21:08.025Z,102912
2023-02-06T06:26:58.360Z,102921
2023-02-06T06:33:00.961Z,102929
2023-02-06T06:39:01.614Z,102929
2023-02-06T06:44:56.502Z,102911
2023-02-06T06:57:38.951Z,102900
2023-02-06T07:03:31.897Z,102901
2023-02-06T07:09:41.609Z,102906
2023-02-06T07:15:42.675Z,102916
2023-02-06T07:21:39.656Z,102922
2023-02-06T07:27:39.512Z,102921
2023-02-06T07:33:31.798Z,102929
2023-02-06T07:39:24.021Z,102927
2023-02-06T07:45:19.984Z,102945
2023-02-06T07:51:12.808Z,102945
2023-02-06T07:57:06.178Z,102949
2023-02-06T08:02:56.715Z,102947
2023-02-06T08:08:54.453Z,102933
2023-02-06T08:14:52.288Z,102933
2023-02-06T08:20:43.336Z,102936
2023-02-06T08:26:35.702Z,102923
2023-02-06T08:32:27.740Z,102927
2023-02-06T08:38:18.787Z,102936
2023-02-06T08:44:12.052Z,102934
2023-02-06T08:50:06.966Z,102940
2023-02-06T08:55:59.709Z,102931
2023-02-06T09:01:54.314Z,102943
2023-02-06T09:07:56.339Z,102945
2023-02-06T09:13:51.977Z,102947
2023-02-06T09:19:43.715Z,102945
2023-02-06T09:25:34.961Z,102947
2023-02-06T09:31:27.920Z,102940
2023-02-06T09:37:29.531Z,102931
2023-02-06T09:43:33.556Z,102921
2023-02-06T09:49:34.676Z,102928
2023-02-06T09:55:26.078Z,102922
2023-02-06T10:01:27.082Z,102914
2023-02-06T10:07:33.376Z,102919
2023-02-06T10:13:24.940Z,102909
2023-02-06T10:19:20.343Z,102909
2023-02-06T10:25:31.534Z,102897
2023-02-06T10:31:22.407Z,102897
2023-02-06T10:37:13.765Z,102893
2023-02-06T10:43:09.394Z,102877
2023-02-06T10:49:00.927Z,102879
2023-02-06T10:54:57.287Z,102879
2023-02-06T11:00:48.643Z,102867
2023-02-06T11:06:40.621Z,102852
2023-02-06T11:12:31.740Z,102831
2023-02-06T11:18:22.588Z,102826
2023-02-06T11:24:15.119Z,102813
2023-02-06T11:30:08.490Z,102799
2023-02-06T11:35:58.391Z,102794
2023-02-06T11:41:50.532Z,102794
2023-02-06T11:47:53.613Z,102783
2023-02-06T11:53:57.174Z,102801
2023-02-06T11:59:48.127Z,102798
2023-02-06T12:05:41.496Z,102790
2023-02-06T12:11:36.686Z,102783
2023-02-06T12:17:28.548Z,102797
2023-02-06T12:23:22.697Z,102793
2023-02-06T12:29:15.946Z,102786
2023-02-06T12:35:09.388Z,102782
2023-02-06T12:40:59.484Z,102777
2023-02-06T12:46:51.809Z,102772
2023-02-06T12:52:43.384Z,102772
2023-02-06T12:58:45.017Z,102775
2023-02-06T13:05:04.974Z,102770
2023-02-06T13:11:02.583Z,102764
2023-02-06T13:17:19.378Z,102755
2023-02-06T13:29:29.304Z,102747
2023-02-06T13:35:35.242Z,102735
2023-02-06T13:41:42.666Z,102740
2023-02-06T13:47:39.208Z,102733
2023-02-06T13:59:54.919Z,102716
2023-02-06T14:12:03.312Z,102706
2023-02-06T14:24:53.958Z,102690
2023-02-06T14:32:00.902Z,102694
2023-02-06T14:37:52.091Z,102702
2023-02-06T14:43:44.856Z,102696
2023-02-06T14:49:39.391Z,102711
2023-02-06T14:55:37.298Z,102709
2023-02-06T15:01:41.878Z,102709
2023-02-06T15:07:53.821Z,102705
2023-02-06T15:14:02.190Z,102715
2023-02-06T15:20:06.426Z,102702
2023-02-06T15:25:59.887Z,102696
2023-02-06T15:32:06.172Z,102689
2023-02-06T15:38:15.988Z,102688
2023-02-06T15:44:22.254Z,102678
2023-02-06T15:50:27.384Z,102678
2023-02-06T15:56:21.964Z,102673
2023-02-06T16:02:20.087Z,102660
2023-02-06T16:08:11.541Z,102662
2023-02-06T16:14:05.782Z,102658
2023-02-06T16:19:57.940Z,102654
2023-02-06T16:25:49.026Z,102660
2023-02-06T16:31:42.111Z,102671
2023-02-06T16:37:33.896Z,102671
2023-02-06T16:43:24.383Z,102667
2023-02-06T16:49:14.450Z,102670
2023-02-06T16:55:06.178Z,102664
2023-02-06T17:00:57.265Z,102664
2023-02-06T17:06:47.365Z,102665
2023-02-06T17:12:37.484Z,102671
2023-02-06T17:18:28.026Z,102684
2023-02-06T17:24:20.305Z,102681
2023-02-06T17:30:10.022Z,102687
2023-02-06T17:36:00.086Z,102691
2023-02-06T17:41:50.370Z,102695
2023-02-06T17:47:40.542Z,102684
2023-02-06T17:53:31.633Z,102675
2023-02-06T17:59:23.616Z,102671
2023-02-06T18:05:15.772Z,102671
2023-02-06T18:11:06.260Z,102673
2023-02-06T18:16:57.054Z,102673
2023-02-06T18:22:47.304Z,102682
2023-02-06T18:28:37.391Z,102688
2023-02-06T18:34:28.171Z,102689
2023-02-06T18:40:18.349Z,102684
2023-02-06T18:46:08.896Z,102681
2023-02-06T18:52:01.353Z,102692
2023-02-06T18:57:52.333Z,102686
2023-02-06T19:03:44.034Z,102666
2023-02-06T19:09:33.148Z,102676
2023-02-06T19:15:23.403Z,102670
2023-02-06T19:21:13.462Z,102685
2023-02-06T19:27:03.288Z,102679
2023-02-06T19:32:53.524Z,102697
2023-02-06T19:38:44.280Z,102692
2023-02-06T19:44:36.381Z,102691
2023-02-06T19:50:26.289Z,102705
2023-02-06T19:56:16.448Z,102722
2023-02-06T20:02:07.018Z,102724
2023-02-06T20:07:57.215Z,102738
2023-02-06T20:13:46.278Z,102728
2023-02-06T20:19:35.853Z,102732
2023-02-06T20:25:26.714Z,102742
2023-02-06T20:31:19.589Z,102736
2023-02-06T20:37:11.437Z,102715
2023-02-06T20:43:01.454Z,102720
2023-02-06T20:48:51.720Z,102714
2023-02-06T20:54:45.152Z,102717
2023-02-06T21:00:34.770Z,102716
2023-02-06T21:06:31.058Z,102729
2023-02-06T21:12:21.957Z,102722
2023-02-06T21:18:14.302Z,102726
2023-02-06T21:24:03.397Z,102728
2023-02-06T21:29:57.335Z,102725
2023-02-06T21:35:51.299Z,102705
2023-02-06T21:41:44.666Z,102713
2023-02-06T21:47:34.054Z,102727
2023-02-06T21:53:24.108Z,102722
2023-02-06T21:59:14.854Z,102714
2023-02-06T22:05:04.101Z,102716
2023-02-06T22:10:53.643Z,102712
2023-02-06T22:16:43.389Z,102718
2023-02-06T22:22:33.580Z,102722
2023-02-06T22:28:28.574Z,102721
2023-02-06T22:34:24.080Z,102705
2023-02-06T22:40:18.573Z,102695
2023-02-06T22:46:15.408Z,102719
2023-02-06T22:52:07.937Z,102716
2023-02-06T22:57:59.372Z,102709
2023-02-06T23:03:49.922Z,102706
2023-02-06T23:09:40.069Z,102710
2023-02-06T23:15:31.720Z,102716
2023-02-06T23:21:22.426Z,102723
2023-02-06T23:27:18.030Z,102730
2023-02-06T23:33:14.495Z,102721
2023-02-06T23:39:05.440Z,102734
2023-02-06T23:44:59.088Z,102746
2023-02-06T23:50:49.384Z,102755
2023-02-06T23:56:39.400Z,102764
